createdAt,value
2023-01-27T00:00:17.640Z,1.09
2023-01-27T00:05:21.411Z,1.10
2023-01-27T00:10:24.595Z,1.25
2023-01-27T00:15:26.721Z,1.33
2023-01-27T00:20:47.471Z,1.27
2023-01-27T00:25:50.300Z,1.20
2023-01-27T00:30:53.374Z,1.14
2023-01-27T00:36:04.453Z,0.99
2023-01-27T00:41:19.684Z,0.90
2023-01-27T00:46:24.279Z,0.91
2023-01-27T00:51:26.079Z,0.86
2023-01-27T00:56:28.162Z,0.83
2023-01-27T01:01:31.092Z,0.85
2023-01-27T01:06:33.351Z,0.89
2023-01-27T01:11:35.195Z,0.99
2023-01-27T01:16:37.009Z,1.10
2023-01-27T01:21:40.703Z,1.19
2023-01-27T01:26:42.750Z,1.18
2023-01-27T01:31:44.860Z,1.23
2023-01-27T01:36:46.570Z,1.35
2023-01-27T01:41:48.207Z,1.26
2023-01-27T01:46:50.037Z,1.16
2023-01-27T01:51:56.548Z,0.94
2023-01-27T01:57:05.399Z,0.86
2023-01-27T02:02:12.954Z,0.91
2023-01-27T02:07:42.312Z,0.92
2023-01-27T02:12:44.078Z,0.91
2023-01-27T02:17:45.847Z,0.90
2023-01-27T02:22:56.614Z,0.87
2023-01-27T02:27:58.322Z,0.80
2023-01-27T02:33:01.476Z,0.85
2023-01-27T02:38:05.353Z,0.88
2023-01-27T02:43:07.210Z,0.81
2023-01-27T02:48:09.014Z,0.67
2023-01-27T02:53:11.099Z,0.74
2023-01-27T02:58:16.376Z,0.78
2023-01-27T03:03:22.115Z,0.81
2023-01-27T03:08:24.007Z,0.84
2023-01-27T03:13:27.957Z,0.87
2023-01-27T03:18:29.677Z,0.84
2023-01-27T03:23:44.776Z,0.77
2023-01-27T03:29:06.699Z,0.68
2023-01-27T03:34:10.403Z,0.64
2023-01-27T03:39:43.380Z,0.58
2023-01-27T03:45:04.486Z,0.48
2023-01-27T03:50:11.209Z,0.39
2023-01-27T03:55:13.128Z,0.31
2023-01-27T04:00:15.207Z,0.22
2023-01-27T04:05:35.951Z,0.15
2023-01-27T04:10:37.677Z,0.07
2023-01-27T04:15:39.353Z,0.05
2023-01-27T04:20:41.288Z,-0.02
2023-01-27T04:25:42.997Z,-0.13
2023-01-27T04:30:49.881Z,-0.23
2023-01-27T04:35:51.628Z,-0.30
2023-01-27T04:40:53.451Z,-0.37
2023-01-27T04:45:55.283Z,-0.43
2023-01-27T04:50:56.981Z,-0.43
2023-01-27T04:56:03.263Z,-0.47
2023-01-27T05:01:04.931Z,-0.49
2023-01-27T05:06:06.669Z,-0.51
2023-01-27T05:11:08.317Z,-0.55
2023-01-27T05:16:11.996Z,-0.61
2023-01-27T05:21:16.494Z,-0.65
2023-01-27T05:26:23.828Z,-0.71
2023-01-27T05:31:31.633Z,-0.73
2023-01-27T05:36:33.551Z,-0.73
2023-01-27T05:41:35.372Z,-0.73
2023-01-27T05:46:39.467Z,-0.73
2023-01-27T05:51:41.282Z,-0.71
2023-01-27T05:56:42.984Z,-0.72
2023-01-27T06:01:44.851Z,-0.75
2023-01-27T06:06:47.075Z,-0.77
2023-01-27T06:11:48.667Z,-0.78
2023-01-27T06:16:50.383Z,-0.79
2023-01-27T06:21:52.084Z,-0.83
2023-01-27T06:26:53.724Z,-0.85
2023-01-27T06:31:55.418Z,-0.87
2023-01-27T06:36:57.099Z,-0.93
2023-01-27T06:41:58.680Z,-0.96
2023-01-27T06:47:00.340Z,-0.98
2023-01-27T06:52:02.055Z,-0.97
2023-01-27T06:57:03.821Z,-0.95
2023-01-27T07:02:05.510Z,-0.93
2023-01-27T07:07:07.227Z,-0.92
2023-01-27T07:12:08.869Z,-0.91
2023-01-27T07:17:10.579Z,-0.88
2023-01-27T07:22:12.287Z,-0.83
2023-01-27T07:27:14.104Z,-0.81
2023-01-27T07:32:16.058Z,-0.73
2023-01-27T07:37:17.742Z,-0.69
2023-01-27T07:42:19.439Z,-0.67
2023-01-27T07:47:24.519Z,-0.58
2023-01-27T07:52:26.234Z,-0.48
2023-01-27T07:57:27.857Z,-0.41
2023-01-27T08:02:31.707Z,-0.36
2023-01-27T08:07:33.440Z,-0.32
2023-01-27T08:12:35.109Z,-0.33
2023-01-27T08:17:36.711Z,-0.37
2023-01-27T08:22:38.460Z,-0.34
2023-01-27T08:27:40.425Z,-0.33
2023-01-27T08:32:42.160Z,-0.31
2023-01-27T08:37:43.898Z,-0.22
2023-01-27T08:42:45.633Z,-0.09
2023-01-27T08:47:47.469Z,0.03
2023-01-27T08:52:49.124Z,0.02
2023-01-27T08:57:50.729Z,0.00
2023-01-27T09:02:52.700Z,0.00
2023-01-27T09:07:54.412Z,-0.02
2023-01-27T09:12:56.005Z,0.01
2023-01-27T09:17:57.812Z,0.05
2023-01-27T09:22:59.772Z,0.04
2023-01-27T09:28:01.583Z,0.08
2023-01-27T09:33:03.284Z,0.17
2023-01-27T09:38:06.317Z,0.24
2023-01-27T09:43:13.547Z,0.27
2023-01-27T09:48:29.583Z,0.35
2023-01-27T09:54:07.522Z,0.42
2023-01-27T09:59:34.083Z,0.46
2023-01-27T10:05:07.914Z,0.47
2023-01-27T10:10:26.271Z,0.48
2023-01-27T10:15:52.838Z,0.23
2023-01-27T10:21:01.214Z,0.10
2023-01-27T10:26:43.175Z,0.09
2023-01-27T10:31:51.903Z,0.06
2023-01-27T10:37:29.620Z,0.18
2023-01-27T10:42:41.297Z,0.42
2023-01-27T10:47:46.093Z,0.64
2023-01-27T10:53:20.588Z,0.72
2023-01-27T10:58:47.998Z,0.71
2023-01-27T11:03:54.275Z,0.62
2023-01-27T11:09:06.674Z,0.52
2023-01-27T11:14:31.223Z,0.51
2023-01-27T11:19:51.013Z,0.53
2023-01-27T11:25:05.763Z,0.51
2023-01-27T11:30:40.548Z,0.49
2023-01-27T11:35:42.341Z,0.44
2023-01-27T11:40:46.804Z,0.41
2023-01-27T11:45:52.679Z,0.45
2023-01-27T11:50:54.463Z,0.53
2023-01-27T11:56:00.733Z,0.49
2023-01-27T12:01:18.014Z,0.49
2023-01-27T12:06:38.131Z,0.48
2023-01-27T12:11:40.057Z,0.49
2023-01-27T12:16:50.727Z,0.55
2023-01-27T12:21:57.240Z,0.72
2023-01-27T12:27:00.615Z,0.94
2023-01-27T12:32:02.488Z,1.04
2023-01-27T12:37:07.737Z,1.08
2023-01-27T12:42:34.011Z,1.09
2023-01-27T12:47:35.736Z,1.02
2023-01-27T12:52:37.540Z,0.87
2023-01-27T12:57:43.629Z,0.73
2023-01-27T13:02:47.158Z,0.67
2023-01-27T13:07:53.424Z,0.64
2023-01-27T13:12:58.691Z,0.65
2023-01-27T13:18:21.843Z,0.63
2023-01-27T13:23:31.393Z,0.63
2023-01-27T13:28:52.159Z,0.62
2023-01-27T13:34:23.965Z,0.59
2023-01-27T13:39:43.922Z,0.51
2023-01-27T13:44:51.497Z,0.52
2023-01-27T13:50:21.578Z,0.57
2023-01-27T13:55:57.844Z,0.62
2023-01-27T14:01:05.573Z,0.65
2023-01-27T14:06:19.298Z,0.67
2023-01-27T14:12:06.455Z,0.66
2023-01-27T14:17:33.919Z,0.64
2023-01-27T14:22:56.270Z,0.62
2023-01-27T14:28:10.020Z,0.56
2023-01-27T14:33:24.485Z,0.54
2023-01-27T14:38:37.333Z,0.54
2023-01-27T14:44:01.221Z,0.56
2023-01-27T14:49:12.083Z,0.57
2023-01-27T14:54:46.533Z,0.49
2023-01-27T14:59:55.828Z,0.45
2023-01-27T15:05:23.633Z,0.45
2023-01-27T15:10:28.687Z,0.44
2023-01-27T15:15:48.233Z,0.42
2023-01-27T15:21:36.601Z,0.36
2023-01-27T15:26:39.286Z,0.33
2023-01-27T15:31:41.541Z,0.37
2023-01-27T15:37:03.759Z,0.31
2023-01-27T15:42:05.407Z,0.25
2023-01-27T15:47:33.295Z,0.25
2023-01-27T15:52:42.861Z,0.22
2023-01-27T15:57:44.673Z,0.22
2023-01-27T16:02:52.620Z,0.22
2023-01-27T16:07:59.892Z,0.25
2023-01-27T16:13:27.889Z,0.27
2023-01-27T16:18:45.097Z,0.25
2023-01-27T16:23:54.695Z,0.23
2023-01-27T16:29:32.178Z,0.23
2023-01-27T16:34:46.414Z,0.22
2023-01-27T16:39:58.854Z,0.26
2023-01-27T16:45:07.272Z,0.28
2023-01-27T16:50:34.181Z,0.25
2023-01-27T16:55:36.197Z,0.28
2023-01-27T17:00:38.150Z,0.25
2023-01-27T17:05:41.777Z,0.20
2023-01-27T17:10:52.276Z,0.19
2023-01-27T17:15:55.234Z,0.25
2023-01-27T17:20:57.124Z,0.24
2023-01-27T17:26:05.991Z,0.21
2023-01-27T17:31:09.326Z,0.21
2023-01-27T17:36:12.533Z,0.19
2023-01-27T17:41:37.139Z,0.14
2023-01-27T17:46:39.938Z,0.15
2023-01-27T17:51:54.329Z,0.22
2023-01-27T17:57:20.215Z,0.19
2023-01-27T18:02:28.883Z,0.16
2023-01-27T18:07:33.765Z,0.23
2023-01-27T18:12:37.622Z,0.24
2023-01-27T18:17:39.447Z,0.21
2023-01-27T18:22:46.280Z,0.20
2023-01-27T18:27:53.276Z,0.22
2023-01-27T18:33:01.592Z,0.22
2023-01-27T18:38:21.588Z,0.19
2023-01-27T18:43:23.421Z,0.25
2023-01-27T18:48:25.267Z,0.27
2023-01-27T18:53:27.209Z,0.28
2023-01-27T18:58:28.855Z,0.27
2023-01-27T19:03:34.601Z,0.24
2023-01-27T19:08:38.930Z,0.17
2023-01-27T19:13:43.006Z,0.09
2023-01-27T19:18:45.484Z,0.06
2023-01-27T19:23:49.593Z,-0.01
2023-01-27T19:28:54.467Z,-0.06
2023-01-27T19:33:57.812Z,-0.07
2023-01-27T19:39:09.317Z,-0.07
2023-01-27T19:44:11.454Z,-0.09
2023-01-27T19:49:18.826Z,-0.15
2023-01-27T19:54:20.856Z,-0.17
2023-01-27T19:59:22.849Z,-0.23
2023-01-27T20:04:24.890Z,-0.26
2023-01-27T20:09:26.910Z,-0.27
2023-01-27T20:14:29.626Z,-0.24
2023-01-27T20:19:31.504Z,-0.18
2023-01-27T20:24:33.432Z,-0.11
2023-01-27T20:29:37.407Z,-0.06
2023-01-27T20:34:40.700Z,-0.09
2023-01-27T20:39:42.651Z,-0.10
2023-01-27T20:44:44.410Z,-0.07
2023-01-27T20:49:46.350Z,-0.02
2023-01-27T20:54:48.109Z,-0.02
2023-01-27T20:59:49.817Z,-0.10
2023-01-27T21:04:51.523Z,-0.06
2023-01-27T21:09:56.066Z,-0.06
2023-01-27T21:14:57.871Z,-0.09
2023-01-27T21:20:00.152Z,-0.12
2023-01-27T21:25:02.087Z,-0.06
2023-01-27T21:30:04.416Z,-0.02
2023-01-27T21:35:06.747Z,-0.04
2023-01-27T21:40:09.592Z,-0.05
2023-01-27T21:45:13.360Z,-0.07
2023-01-27T21:50:15.766Z,-0.11
2023-01-27T21:55:23.875Z,-0.13
2023-01-27T22:00:28.035Z,-0.11
2023-01-27T22:05:32.142Z,-0.15
2023-01-27T22:10:34.789Z,-0.12
2023-01-27T22:15:36.643Z,-0.00
2023-01-27T22:20:38.346Z,0.01
2023-01-27T22:25:40.181Z,-0.04
2023-01-27T22:30:42.092Z,-0.04
2023-01-27T22:35:44.238Z,-0.00
2023-01-27T22:40:46.270Z,0.01
2023-01-27T22:45:48.048Z,-0.03
2023-01-27T22:50:49.796Z,-0.02
2023-01-27T22:55:56.578Z,0.02
2023-01-27T23:00:58.807Z,0.02
2023-01-27T23:06:09.722Z,-0.00
2023-01-27T23:11:11.990Z,0.04
2023-01-27T23:16:13.852Z,0.09
2023-01-27T23:21:15.674Z,0.10
2023-01-27T23:26:17.774Z,0.02
2023-01-27T23:31:19.704Z,0.00
2023-01-27T23:36:21.633Z,0.05
2023-01-27T23:41:24.266Z,0.12
2023-01-27T23:46:26.212Z,0.11
2023-01-27T23:51:27.951Z,0.08
2023-01-27T23:56:29.562Z,0.05
